Bethlehem, Kentucky
Current Conditions -  °F | °C
As of 5:53 PM on Wednesday 22 Oct 2014 (Local Time) from KFFT Reporting Station
Clear Clear  
Wind Chill: 55°   Ceiling: Unl
Heat Index: 55°   Visibility: 10mi
Dew Point: 39°   Wind: 6mph
Humidity: 55%   Direction: 360°N
Pressure: 30.24"   Gusts: NA
Location:  38.4°N, 85.07°W
Report Text: KFFT 222153Z AUTO 36005KT 10SM CLR 13/04 A3024 RMK AO2 SLP240 T01280039
Loading
Personal Weather Stations






























Interactive Weather Map
Tropical Storm Tracking
New forecast layout! Learn more

10-Day Weather Forecast

Advertisements
Track Severe Weather on mobile